WetterOnline ( http://www.wetteronline.de )

Wetter aktuell Lieser

Aktuelles Wetter: Deuselbach (483m)

6-stündlich | Neueste Meldungen
Ortszeit Temperatur Wetter
Mo, 20.08. 20:00 20.1° C wolkenlos
Mo, 20.08. 14:00 22.5° C bewölkt
Mo, 20.08. 8:00 17.3° C bewölkt
Mo, 20.08. 2:00 17.5° C wolkig
So, 19.08. 20:00 22.7° C leicht bewölkt
So, 19.08. 14:00 24.0° C leicht bewölkt
So, 19.08. 8:00 13.8° C wolkenlos
So, 19.08. 2:00 14.2° C wolkig
Ortszeit Temperatur Wetter
Di, 21.08. 0:30 16.6° C bedeckt
Di, 21.08. 0:20 16.6° C bedeckt
Di, 21.08. 0:10 16.5° C bedeckt
Di, 21.08. 0:00 17.1° C bewölkt
Mo, 20.08. 23:50 17.1° C bewölkt
Mo, 20.08. 23:40 17.3° C wolkig
Mo, 20.08. 23:30 16.6° C leicht bewölkt
Mo, 20.08. 23:00 16.8° C wolkig
Mo, 20.08. 22:30 16.8° C wolkenlos
Mo, 20.08. 22:00 17.4° C wolkenlos
Mo, 20.08. 21:30 18.3° C wolkenlos
Ortszeit Relative Feuchte Sichtweite
Mo, 20.08. 20:00 70% 70 km
Mo, 20.08. 14:00 55% 40 km
Mo, 20.08. 8:00 78% 30 km
Mo, 20.08. 2:00 73% 35 km
So, 19.08. 20:00 50% 55 km
So, 19.08. 14:00 46% 23 km
So, 19.08. 8:00 80% 24 km
So, 19.08. 2:00 71% 70 km
Ortszeit Relative Feuchte Sichtweite
Di, 21.08. 0:30 89% 35 km
Di, 21.08. 0:20 89% -
Di, 21.08. 0:10 88% -
Di, 21.08. 0:00 85% 45 km
Mo, 20.08. 23:50 85% -
Mo, 20.08. 23:40 85% -
Mo, 20.08. 23:30 86% 55 km
Mo, 20.08. 23:00 85% 65 km
Mo, 20.08. 22:30 85% 70 km
Mo, 20.08. 22:00 82% 70 km
Mo, 20.08. 21:30 78% 70 km
Ortszeit Niederschlagsmenge Niederschlagsart
Mo, 20.08. 20:00 0.0 l/m2 in 12 Std. -
Mo, 20.08. 14:00 0.0 l/m2 in 6 Std. -
Mo, 20.08. 8:00 0.0 l/m2 in 12 Std. -
Mo, 20.08. 2:00 0.0 l/m2 in 6 Std. -
So, 19.08. 20:00 0.0 l/m2 in 12 Std. -
So, 19.08. 14:00 0.0 l/m2 in 6 Std. -
So, 19.08. 8:00 0.0 l/m2 in 12 Std. -
So, 19.08. 2:00 0.0 l/m2 in 6 Std. -
Ortszeit Niederschlagsmenge Niederschlagsart
Di, 21.08. 0:30 0.0 l/m2 in 1 Std. -
Di, 21.08. 0:20 keine Meldung -
Di, 21.08. 0:10 keine Meldung -
Di, 21.08. 0:00 0.0 l/m2 in 1 Std. -
Mo, 20.08. 23:50 keine Meldung -
Mo, 20.08. 23:40 keine Meldung -
Mo, 20.08. 23:30 0.0 l/m2 in 1 Std. -
Mo, 20.08. 23:00 0.0 l/m2 in 1 Std. -
Mo, 20.08. 22:30 0.0 l/m2 in 1 Std. -
Mo, 20.08. 22:00 0.0 l/m2 in 1 Std. -
Mo, 20.08. 21:30 0.0 l/m2 in 1 Std. -
Ortszeit Stärke Spitze Richtung
km/h Bft. km/h Grad Sektor
Mo, 20.08. 20:00 7 2 22 290° W
Mo, 20.08. 14:00 9 2 22 330° NW
Mo, 20.08. 8:00 7 2 14 240° SW
Mo, 20.08. 2:00 7 2 25 240° SW
So, 19.08. 20:00 19 3 41 290° W
So, 19.08. 14:00 15 3 28 290° W
So, 19.08. 8:00 4 1 7 90° O
So, 19.08. 2:00 7 2 11 150° SO
Ortszeit Stärke Spitze Richtung
km/h Bft. km/h Grad Sektor
Di, 21.08. 0:30 4 1 4 160° S
Di, 21.08. 0:20 4 1 - 160° S
Di, 21.08. 0:10 4 1 - 170° S
Di, 21.08. 0:00 4 1 7 130° SO
Mo, 20.08. 23:50 4 1 - 130° SO
Mo, 20.08. 23:40 4 1 - 150° SO
Mo, 20.08. 23:30 6 1 7 140° SO
Mo, 20.08. 23:00 6 1 9 140° SO
Mo, 20.08. 22:30 6 1 6 160° S
Mo, 20.08. 22:00 6 1 6 180° S
Mo, 20.08. 21:30 4 1 4 190° S
Ortszeit Untergrenze Bedeckung Gattung
total tief tief mittel hoch
Mo, 20.08. 20:00 - 0/8 0/8 - - -
Mo, 20.08. 14:00 1110 m 7/8 7/8 - - -
Mo, 20.08. 8:00 1140 m 8/8 6/8 - - -
Mo, 20.08. 2:00 3000 m 3/8 - - - -
So, 19.08. 20:00 3300 m 2/8 2/8 - - -
So, 19.08. 14:00 1800 m 3/8 - - - -
So, 19.08. 8:00 - 0/8 0/8 - - -
So, 19.08. 2:00 9000 m 8/8 0/8 - - -
Ortszeit Bedeckungsgrad in Achtel und Wolkenuntergrenze
Di, 21.08. 0:30 8(1500m)
Di, 21.08. 0:20 8(1500m)
Di, 21.08. 0:10 8(1500m)
Di, 21.08. 0:00 7(1500m)
Mo, 20.08. 23:50 7(1500m)
Mo, 20.08. 23:40 5(1500m)
Mo, 20.08. 23:30 3(1500m)
Mo, 20.08. 23:00 6(1500m)
Mo, 20.08. 22:30 keine Wolken
Mo, 20.08. 22:00 keine Wolken
Mo, 20.08. 21:30 keine Wolken
Ortszeit Luftdruck NN (hPa) Tendenz (hPa in 3 Std.)
Mo, 20.08. 20:00 1019 - 0,6
Mo, 20.08. 14:00 1019 - 0,3
Mo, 20.08. 8:00 1020 + 0,4
Mo, 20.08. 2:00 1020 0,0
So, 19.08. 20:00 1018 - 0,5
So, 19.08. 14:00 1020 - 1,2
So, 19.08. 8:00 1023 - 0,2
So, 19.08. 2:00 1023 - 0,1
Ortszeit Luftdruck NN (hPa) Tendenz (hPa in 3 Std.)
Di, 21.08. 0:30 1021 + 0,9
Di, 21.08. 0:20 1021 keine Meldung
Di, 21.08. 0:10 1021 keine Meldung
Di, 21.08. 0:00 1021 + 0,9
Mo, 20.08. 23:50 1021 keine Meldung
Mo, 20.08. 23:40 1021 keine Meldung
Mo, 20.08. 23:30 1021 + 0,8
Mo, 20.08. 23:00 1021 + 0,8
Mo, 20.08. 22:30 1020 + 0,8
Mo, 20.08. 22:00 1020 + 0,5
Mo, 20.08. 21:30 1020 0,0
Ortszeit Schneehöhe (cm)
Mo, 20.08. 20:00 -
Mo, 20.08. 14:00 -
Mo, 20.08. 8:00 -
Mo, 20.08. 2:00 -
So, 19.08. 20:00 -
So, 19.08. 14:00 -
So, 19.08. 8:00 -
So, 19.08. 2:00 -
Ortszeit Schneehöhe (cm)
Di, 21.08. 0:30 -
Di, 21.08. 0:20 -
Di, 21.08. 0:10 -
Di, 21.08. 0:00 -
Mo, 20.08. 23:50 -
Mo, 20.08. 23:40 -
Mo, 20.08. 23:30 -
Mo, 20.08. 23:00 -
Mo, 20.08. 22:30 -
Mo, 20.08. 22:00 -
Mo, 20.08. 21:30 -
Link zu dieser Seite / Seite empfehlen

Das Wetter in ...